Comins, Michigan
Current Conditions -  °F | °C
As of 3:23 AM on Tuesday 27 Jan 2015 (Local Time) from KAPN Reporting Station
Light Snow Light Snow  
Wind Chill: -13°   Ceiling: 3000
Heat Index: -8°   Visibility: 4mi
Dew Point: -11°   Wind: 6mph
Humidity: 84%   Direction: 50°NE
Pressure: 30.07"   Gusts: NA
Location:  44.8°N, 84.04°W
Report Text: KAPN 270823Z AUTO 05005KT 4SM -SN BR BKN030 OVC038 M08/M11 A3007 RMK AO2 SNB0757 P0000 T10831106
Loading
Personal Weather Stations






























Interactive Weather Map New forecast layout! Learn more

10-Day Weather Forecast

Advertisements
Track Severe Weather on mobile